createdAt,value
2024-02-28T00:00:57.406Z,4.23
2024-02-28T00:03:25.305Z,3.80
2024-02-28T00:05:52.696Z,4.20
2024-02-28T00:08:21.540Z,4.17
2024-02-28T00:10:48.889Z,4.63
2024-02-28T00:13:16.938Z,4.80
2024-02-28T00:15:44.290Z,4.50
2024-02-28T00:18:11.700Z,4.07
2024-02-28T00:20:38.937Z,3.43
2024-02-28T00:23:06.263Z,4.03
2024-02-28T00:25:33.522Z,3.70
2024-02-28T00:28:00.747Z,4.40
2024-02-28T00:30:29.899Z,4.27
2024-02-28T00:32:57.422Z,4.60
2024-02-28T00:35:24.792Z,3.47
2024-02-28T00:37:52.096Z,4.33
2024-02-28T00:40:19.383Z,4.50
2024-02-28T00:42:47.001Z,5.10
2024-02-28T00:45:14.504Z,4.33
2024-02-28T00:47:41.895Z,5.80
2024-02-28T00:50:09.840Z,3.90
2024-02-28T00:52:37.110Z,3.83
2024-02-28T00:55:06.129Z,4.63
2024-02-28T00:57:33.548Z,4.10
2024-02-28T01:00:00.943Z,4.40
2024-02-28T01:02:29.380Z,3.17
2024-02-28T01:04:56.644Z,3.50
2024-02-28T01:07:23.904Z,3.70
2024-02-28T01:09:51.395Z,4.67
2024-02-28T01:12:18.795Z,5.20
2024-02-28T01:14:46.084Z,4.20
2024-02-28T01:17:13.311Z,4.93
2024-02-28T01:19:40.619Z,4.97
2024-02-28T01:22:07.835Z,3.83
2024-02-28T01:24:35.194Z,4.37
2024-02-28T01:27:02.638Z,4.07
2024-02-28T01:29:31.452Z,3.50
2024-02-28T01:31:58.683Z,3.70
2024-02-28T01:34:25.885Z,3.73
2024-02-28T01:36:53.236Z,3.70
2024-02-28T01:39:20.690Z,3.30
2024-02-28T01:41:55.101Z,4.33
2024-02-28T01:44:22.980Z,3.67
2024-02-28T01:46:50.637Z,3.77
2024-02-28T01:49:18.874Z,4.40
2024-02-28T01:51:48.312Z,4.10
2024-02-28T01:54:16.639Z,3.60
2024-02-28T01:56:45.387Z,3.73
2024-02-28T01:59:13.005Z,3.80
2024-02-28T02:01:40.563Z,5.00
2024-02-28T02:04:07.884Z,4.17
2024-02-28T02:06:40.080Z,3.97
2024-02-28T02:09:07.496Z,4.40
2024-02-28T02:11:35.619Z,4.20
2024-02-28T02:14:02.980Z,4.93
2024-02-28T02:16:31.303Z,4.07
2024-02-28T02:18:59.021Z,4.73
2024-02-28T02:21:31.897Z,3.83
2024-02-28T02:23:59.295Z,3.60
2024-02-28T02:26:26.586Z,3.80
2024-02-28T02:28:53.950Z,4.07
2024-02-28T02:31:21.341Z,4.27
2024-02-28T02:33:49.479Z,3.73
2024-02-28T02:36:16.919Z,3.77
2024-02-28T02:38:44.260Z,3.93
2024-02-28T02:41:11.574Z,4.20
2024-02-28T02:43:38.782Z,4.30
2024-02-28T02:46:06.432Z,3.87
2024-02-28T02:48:34.733Z,4.30
2024-02-28T02:51:02.530Z,4.10
2024-02-28T02:53:29.791Z,3.30
2024-02-28T02:55:57.009Z,3.53
2024-02-28T02:58:24.279Z,3.60
2024-02-28T03:00:51.787Z,3.90
2024-02-28T03:03:19.212Z,4.70
2024-02-28T03:05:46.472Z,3.87
2024-02-28T03:08:13.837Z,4.00
2024-02-28T03:10:41.047Z,3.63
2024-02-28T03:13:08.422Z,3.57
2024-02-28T03:15:35.850Z,3.53
2024-02-28T03:18:03.576Z,4.57
2024-02-28T03:20:31.063Z,4.67
2024-02-28T03:22:58.555Z,3.93
2024-02-28T03:25:26.040Z,4.63
2024-02-28T03:27:54.353Z,4.03
2024-02-28T03:30:21.740Z,4.40
2024-02-28T03:32:49.080Z,5.17
2024-02-28T03:35:16.431Z,4.00
2024-02-28T03:37:43.645Z,4.87
2024-02-28T03:40:11.217Z,4.53
2024-02-28T03:42:38.569Z,4.40
2024-02-28T03:45:06.207Z,3.80
2024-02-28T03:47:33.527Z,4.00
2024-02-28T03:50:01.169Z,3.90
2024-02-28T03:52:28.579Z,4.47
2024-02-28T03:54:55.914Z,4.07
2024-02-28T03:57:23.206Z,4.97
2024-02-28T03:59:50.692Z,5.07
2024-02-28T04:02:18.013Z,5.03
2024-02-28T04:04:45.363Z,4.90
2024-02-28T04:07:12.681Z,4.13
2024-02-28T04:09:39.936Z,4.07
2024-02-28T04:12:07.636Z,5.10
2024-02-28T04:14:34.904Z,4.63
2024-02-28T04:17:02.127Z,3.97
2024-02-28T04:19:29.353Z,3.77
2024-02-28T04:21:56.669Z,4.60
2024-02-28T04:24:23.995Z,4.20
2024-02-28T04:26:54.650Z,4.50
2024-02-28T04:29:22.010Z,3.60
2024-02-28T04:31:49.265Z,4.13
2024-02-28T04:34:16.573Z,5.07
2024-02-28T04:36:43.982Z,4.70
2024-02-28T04:39:11.263Z,4.07
2024-02-28T04:41:38.604Z,4.97
2024-02-28T04:44:06.011Z,4.60
2024-02-28T04:46:34.104Z,4.03
2024-02-28T04:49:01.486Z,5.10
2024-02-28T04:51:28.920Z,4.30
2024-02-28T04:53:56.230Z,4.20
2024-02-28T04:56:23.468Z,4.10
2024-02-28T04:58:50.695Z,3.70
2024-02-28T05:01:20.739Z,4.60
2024-02-28T05:03:49.634Z,4.20
2024-02-28T05:06:17.609Z,3.97
2024-02-28T05:08:44.982Z,3.90
2024-02-28T05:11:12.306Z,5.03
2024-02-28T05:13:39.584Z,4.03
2024-02-28T05:16:14.275Z,4.03
2024-02-28T05:18:41.596Z,4.50
2024-02-28T05:21:09.027Z,3.90
2024-02-28T05:23:36.367Z,3.50
2024-02-28T05:26:08.166Z,3.63
2024-02-28T05:28:35.997Z,4.30
2024-02-28T05:31:21.469Z,3.70
2024-02-28T05:33:48.823Z,4.03
2024-02-28T05:36:16.149Z,4.20
2024-02-28T05:38:43.565Z,4.50
2024-02-28T05:41:10.952Z,3.70
2024-02-28T05:43:39.190Z,4.67
2024-02-28T05:46:06.438Z,3.90
2024-02-28T05:48:33.945Z,3.63
2024-02-28T05:51:05.711Z,4.30
2024-02-28T05:53:39.619Z,4.20
2024-02-28T05:56:14.424Z,3.87
2024-02-28T05:58:42.796Z,3.63
2024-02-28T06:01:16.035Z,4.47
2024-02-28T06:04:03.187Z,4.03
2024-02-28T06:06:30.647Z,5.83
2024-02-28T06:08:57.949Z,4.40
2024-02-28T06:11:25.246Z,3.37
2024-02-28T06:13:52.864Z,3.00
2024-02-28T06:16:20.225Z,3.67
2024-02-28T06:18:47.625Z,4.97
2024-02-28T06:21:15.819Z,4.10
2024-02-28T06:23:43.521Z,3.70
2024-02-28T06:26:17.822Z,3.00
2024-02-28T06:28:49.086Z,3.63
2024-02-28T06:33:47.372Z,3.27
2024-02-28T06:36:14.765Z,3.35
2024-02-28T06:38:43.028Z,3.07
2024-02-28T06:41:10.404Z,4.23
2024-02-28T06:43:38.076Z,3.40
2024-02-28T06:46:05.906Z,4.80
2024-02-28T06:48:33.250Z,4.73
2024-02-28T06:51:00.886Z,3.30
2024-02-28T06:53:28.217Z,3.73
2024-02-28T06:55:55.516Z,3.80
2024-02-28T06:58:24.878Z,4.07
2024-02-28T07:00:55.178Z,4.70
2024-02-28T07:03:23.798Z,4.00
2024-02-28T07:05:51.286Z,3.90
2024-02-28T07:08:18.863Z,4.13
2024-02-28T07:10:50.668Z,4.30
2024-02-28T07:13:18.086Z,4.40
2024-02-28T07:15:45.463Z,4.07
2024-02-28T07:18:12.852Z,4.80
2024-02-28T07:20:40.399Z,4.13
2024-02-28T07:23:07.662Z,4.17
2024-02-28T07:25:35.000Z,4.30
2024-02-28T07:28:02.494Z,1.27
2024-02-28T07:30:29.933Z,4.33
2024-02-28T07:32:57.926Z,4.20
2024-02-28T07:35:25.352Z,3.88
2024-02-28T07:37:52.716Z,4.17
2024-02-28T07:40:20.072Z,3.80
2024-02-28T07:42:47.368Z,4.13
2024-02-28T07:45:14.995Z,3.67
2024-02-28T07:47:42.469Z,4.33
2024-02-28T07:50:10.000Z,4.82
2024-02-28T07:52:38.675Z,4.27
2024-02-28T07:55:07.005Z,5.07
2024-02-28T07:57:34.836Z,4.63
2024-02-28T08:00:02.267Z,4.55
2024-02-28T08:02:40.673Z,4.85
2024-02-28T08:05:08.949Z,3.45
2024-02-28T08:07:36.324Z,4.38
2024-02-28T08:10:07.251Z,4.72
2024-02-28T08:12:35.417Z,5.28
2024-02-28T08:15:03.789Z,4.40
2024-02-28T08:17:32.595Z,4.13
2024-02-28T08:19:59.979Z,5.10
2024-02-28T08:22:27.249Z,4.75
2024-02-28T08:24:54.617Z,1.80
2024-02-28T08:27:22.110Z,4.25
2024-02-28T08:29:49.398Z,5.38
2024-02-28T08:32:17.183Z,4.50
2024-02-28T08:34:47.715Z,4.43
2024-02-28T08:37:15.208Z,3.97
2024-02-28T08:39:42.534Z,4.60
2024-02-28T08:42:09.921Z,5.00
2024-02-28T08:44:38.353Z,4.93
2024-02-28T08:47:05.838Z,5.45
2024-02-28T08:49:33.173Z,4.53
2024-02-28T08:52:00.424Z,3.63
2024-02-28T08:54:27.856Z,4.60
2024-02-28T08:57:00.152Z,4.00
2024-02-28T08:59:31.145Z,4.70
2024-02-28T09:01:58.518Z,4.80
2024-02-28T09:04:25.988Z,4.97
2024-02-28T09:06:56.318Z,5.05
2024-02-28T09:09:23.638Z,5.10
2024-02-28T09:11:50.998Z,5.13
2024-02-28T09:14:18.422Z,4.70
2024-02-28T09:16:45.725Z,5.57
2024-02-28T09:19:13.041Z,5.68
2024-02-28T09:21:40.384Z,6.10
2024-02-28T09:24:07.947Z,6.43
2024-02-28T09:26:35.261Z,5.80
2024-02-28T09:29:02.594Z,6.93
2024-02-28T09:31:48.489Z,6.30
2024-02-28T09:34:15.866Z,6.13
2024-02-28T09:36:48.633Z,6.60
2024-02-28T09:39:18.832Z,5.38
2024-02-28T09:41:50.636Z,6.35
2024-02-28T09:44:19.327Z,5.53
2024-02-28T09:46:47.182Z,5.90
2024-02-28T09:49:16.365Z,6.72
2024-02-28T09:51:45.629Z,5.95
2024-02-28T09:54:13.622Z,5.80
2024-02-28T09:56:41.751Z,6.35
2024-02-28T09:59:09.502Z,6.82
2024-02-28T10:01:47.387Z,5.43
2024-02-28T10:04:15.192Z,6.35
2024-02-28T10:06:42.635Z,7.15
2024-02-28T10:09:12.062Z,6.47
2024-02-28T10:11:42.788Z,6.55
2024-02-28T10:14:10.989Z,6.03
2024-02-28T10:16:38.414Z,6.38
2024-02-28T10:19:06.794Z,6.90
2024-02-28T10:21:34.296Z,5.57
2024-02-28T10:24:05.154Z,6.32
2024-02-28T10:26:37.153Z,6.32
2024-02-28T10:29:04.787Z,6.32
2024-02-28T10:31:34.154Z,6.80
2024-02-28T10:34:03.832Z,6.85
2024-02-28T10:36:33.817Z,4.80
2024-02-28T10:39:01.735Z,6.45
2024-02-28T10:41:29.934Z,6.85
2024-02-28T10:43:57.285Z,6.10
2024-02-28T10:46:35.572Z,6.07
2024-02-28T10:49:06.122Z,5.82
2024-02-28T10:51:38.322Z,6.13
2024-02-28T10:54:13.137Z,5.82
2024-02-28T10:56:42.484Z,6.20
2024-02-28T10:59:12.986Z,6.18
2024-02-28T11:01:46.621Z,6.40
2024-02-28T11:04:16.807Z,5.68
2024-02-28T11:06:54.827Z,6.68
2024-02-28T11:09:27.623Z,7.03
2024-02-28T11:11:56.380Z,6.95
2024-02-28T11:14:26.914Z,6.97
2024-02-28T11:17:07.231Z,6.55
2024-02-28T11:19:36.159Z,7.20
2024-02-28T11:22:06.790Z,6.47
2024-02-28T11:24:36.051Z,6.90
2024-02-28T11:27:04.634Z,6.28
2024-02-28T11:29:32.725Z,6.10
2024-02-28T11:32:01.911Z,5.88
2024-02-28T11:34:29.641Z,5.90
2024-02-28T11:36:57.764Z,6.20
2024-02-28T11:39:30.860Z,6.28
2024-02-28T11:42:10.689Z,6.50
2024-02-28T11:44:38.060Z,5.95
2024-02-28T11:47:05.482Z,6.15
2024-02-28T11:49:34.784Z,5.82
2024-02-28T11:52:02.179Z,6.63
2024-02-28T11:54:29.560Z,6.32
2024-02-28T11:56:58.837Z,4.60
2024-02-28T11:59:27.651Z,6.13
2024-02-28T12:01:56.979Z,6.68
2024-02-28T12:04:44.813Z,5.65
2024-02-28T12:07:12.670Z,6.28
2024-02-28T12:09:42.617Z,6.47
2024-02-28T12:12:10.578Z,5.95
2024-02-28T12:14:41.433Z,6.10
2024-02-28T12:17:11.223Z,7.50
2024-02-28T12:19:38.560Z,6.20
2024-02-28T12:22:06.162Z,6.50
2024-02-28T12:24:33.492Z,6.50
2024-02-28T12:27:00.833Z,6.45
2024-02-28T12:29:28.132Z,5.65
2024-02-28T12:31:55.600Z,6.28
2024-02-28T12:34:23.118Z,5.97
2024-02-28T12:36:50.545Z,6.22
2024-02-28T12:39:17.843Z,5.10
2024-02-28T12:42:03.587Z,6.40
2024-02-28T12:44:31.459Z,6.18
2024-02-28T12:46:58.712Z,6.05
2024-02-28T12:49:25.959Z,5.40
2024-02-28T12:51:53.528Z,6.00
2024-02-28T12:54:22.212Z,6.00
2024-02-28T12:56:50.034Z,5.55
2024-02-28T12:59:17.447Z,6.18
2024-02-28T13:01:45.283Z,6.10
2024-02-28T13:04:12.714Z,5.43
2024-02-28T13:06:40.947Z,5.70
2024-02-28T13:09:13.807Z,6.68
2024-02-28T13:11:41.396Z,5.88
2024-02-28T13:14:12.062Z,5.13
2024-02-28T13:16:39.500Z,5.80
2024-02-28T13:19:06.886Z,5.15
2024-02-28T13:21:35.453Z,5.90
2024-02-28T13:24:03.104Z,6.07
2024-02-28T13:26:30.620Z,5.20
2024-02-28T13:28:58.323Z,5.38
2024-02-28T13:31:25.736Z,5.45
2024-02-28T13:33:53.074Z,5.43
2024-02-28T13:36:20.559Z,7.65
2024-02-28T13:38:47.811Z,5.20
2024-02-28T13:41:15.261Z,5.50
2024-02-28T13:43:42.528Z,5.97
2024-02-28T13:46:11.595Z,5.60
2024-02-28T13:48:39.279Z,5.75
2024-02-28T13:51:07.214Z,5.97
2024-02-28T13:53:34.576Z,6.00
2024-02-28T13:56:01.864Z,4.50
2024-02-28T13:58:36.581Z,7.78
2024-02-28T14:01:11.121Z,6.50
2024-02-28T14:03:41.223Z,6.07
2024-02-28T14:06:09.863Z,6.43
2024-02-28T14:08:37.418Z,5.50
2024-02-28T14:11:05.978Z,5.70
2024-02-28T14:13:33.578Z,5.82
2024-02-28T14:16:00.989Z,6.10
2024-02-28T14:18:28.878Z,6.05
2024-02-28T14:20:56.278Z,5.82
2024-02-28T14:23:23.537Z,7.15
2024-02-28T14:25:50.847Z,6.75
2024-02-28T14:28:20.536Z,7.20
2024-02-28T14:30:50.648Z,6.55
2024-02-28T14:33:19.201Z,6.20
2024-02-28T14:35:46.648Z,7.00
2024-02-28T14:38:14.066Z,6.82
2024-02-28T14:40:41.916Z,6.95
2024-02-28T14:43:10.128Z,5.63
2024-02-28T14:45:39.932Z,5.80
2024-02-28T14:48:08.967Z,6.00
2024-02-28T14:50:36.443Z,6.50
2024-02-28T14:53:04.657Z,5.20
2024-02-28T14:55:31.934Z,5.95
2024-02-28T14:58:00.447Z,6.70
2024-02-28T15:00:29.703Z,5.75
2024-02-28T15:02:57.145Z,5.60
2024-02-28T15:05:25.688Z,6.07
2024-02-28T15:07:52.970Z,6.35
2024-02-28T15:10:20.893Z,5.95
2024-02-28T15:12:48.361Z,7.20
2024-02-28T15:15:16.226Z,7.65
2024-02-28T15:17:43.662Z,6.10
2024-02-28T15:20:11.393Z,6.75
2024-02-28T15:22:39.607Z,6.28
2024-02-28T15:25:07.443Z,6.78
2024-02-28T15:27:34.854Z,7.15
2024-02-28T15:30:02.243Z,6.68
2024-02-28T15:32:31.061Z,6.72
2024-02-28T15:34:58.336Z,6.45
2024-02-28T15:37:25.809Z,6.03
2024-02-28T15:39:54.135Z,6.00
2024-02-28T15:42:21.660Z,6.13
2024-02-28T15:44:49.014Z,5.90
2024-02-28T15:47:16.243Z,5.05
2024-02-28T15:49:43.517Z,5.68
2024-02-28T15:52:11.056Z,5.88
2024-02-28T15:54:40.116Z,5.65
2024-02-28T15:57:07.801Z,6.28
2024-02-28T15:59:35.717Z,6.63
2024-02-28T16:02:05.075Z,5.63
2024-02-28T16:04:50.990Z,6.53
2024-02-28T16:07:18.389Z,6.45
2024-02-28T16:09:46.369Z,6.15
2024-02-28T16:12:14.006Z,4.53
2024-02-28T16:14:41.373Z,6.05
2024-02-28T16:17:08.682Z,6.57
2024-02-28T16:19:36.228Z,6.75
2024-02-28T16:22:04.139Z,5.57
2024-02-28T16:24:31.843Z,5.97
2024-02-28T16:26:59.145Z,5.63
2024-02-28T16:29:26.743Z,5.28
2024-02-28T16:31:54.096Z,5.65
2024-02-28T16:34:21.525Z,6.03
2024-02-28T16:36:49.443Z,5.40
2024-02-28T16:39:19.488Z,5.68
2024-02-28T16:41:47.168Z,6.22
2024-02-28T16:44:14.568Z,5.85
2024-02-28T16:46:41.948Z,4.80
2024-02-28T16:49:09.367Z,4.97
2024-02-28T16:51:38.842Z,6.15
2024-02-28T16:54:07.542Z,6.03
2024-02-28T16:56:35.229Z,5.85
2024-02-28T16:59:02.987Z,5.22
2024-02-28T17:01:30.746Z,6.05
2024-02-28T17:03:58.353Z,5.47
2024-02-28T17:06:25.836Z,5.78
2024-02-28T17:08:53.306Z,6.38
2024-02-28T17:11:22.454Z,6.32
2024-02-28T17:13:50.228Z,6.20
2024-02-28T17:16:18.745Z,5.60
2024-02-28T17:18:46.520Z,5.63
2024-02-28T17:21:14.123Z,5.18
2024-02-28T17:23:41.359Z,5.93
2024-02-28T17:26:08.768Z,6.60
2024-02-28T17:28:36.134Z,6.13
2024-02-28T17:31:04.278Z,6.30
2024-02-28T17:33:31.818Z,5.47
2024-02-28T17:35:59.266Z,5.70
2024-02-28T17:38:26.644Z,5.65
2024-02-28T17:40:54.064Z,5.00
2024-02-28T17:43:21.460Z,5.85
2024-02-28T17:45:48.869Z,5.15
2024-02-28T17:48:18.787Z,5.70
2024-02-28T17:50:46.104Z,5.40
2024-02-28T17:53:13.849Z,6.30
2024-02-28T17:56:00.351Z,5.50
2024-02-28T17:58:29.570Z,6.25
2024-02-28T18:00:59.179Z,5.57
2024-02-28T18:03:26.744Z,6.13
2024-02-28T18:05:54.109Z,5.95
2024-02-28T18:08:23.397Z,6.18
2024-02-28T18:10:50.781Z,6.18
2024-02-28T18:13:36.603Z,5.90
2024-02-28T18:16:04.106Z,5.57
2024-02-28T18:18:31.640Z,5.95
2024-02-28T18:21:01.911Z,4.75
2024-02-28T18:23:34.239Z,7.05
2024-02-28T18:26:03.201Z,5.63
2024-02-28T18:28:30.858Z,5.20
2024-02-28T18:30:58.176Z,5.00
2024-02-28T18:33:25.575Z,5.20
2024-02-28T18:35:52.868Z,5.53
2024-02-28T18:38:20.449Z,4.38
2024-02-28T18:40:47.778Z,5.30
2024-02-28T18:43:18.370Z,5.28
2024-02-28T18:45:46.205Z,5.50
2024-02-28T18:48:13.509Z,5.40
2024-02-28T18:50:42.428Z,5.40
2024-02-28T18:53:09.829Z,5.55
2024-02-28T18:55:37.124Z,5.25
2024-02-28T18:58:04.840Z,5.25
2024-02-28T19:00:33.094Z,5.85
2024-02-28T19:03:01.206Z,5.93
2024-02-28T19:05:28.703Z,5.45
2024-02-28T19:07:56.066Z,5.32
2024-02-28T19:10:23.414Z,5.22
2024-02-28T19:13:10.243Z,4.43
2024-02-28T19:15:38.072Z,4.60
2024-02-28T19:18:24.177Z,4.70
2024-02-28T19:20:52.490Z,4.45
2024-02-28T19:23:20.892Z,5.28
2024-02-28T19:25:48.559Z,4.07
2024-02-28T19:28:16.535Z,4.75
2024-02-28T19:30:43.870Z,5.40
2024-02-28T19:33:11.810Z,5.13
2024-02-28T19:35:39.280Z,5.43
2024-02-28T19:38:06.619Z,4.63
2024-02-28T19:40:34.927Z,4.80
2024-02-28T19:43:03.085Z,4.30
2024-02-28T19:45:30.577Z,4.78
2024-02-28T19:47:58.186Z,4.00
2024-02-28T19:50:25.619Z,4.70
2024-02-28T19:52:52.960Z,4.15
2024-02-28T19:55:21.906Z,4.32
2024-02-28T19:57:49.233Z,4.18
2024-02-28T20:00:16.942Z,4.22
2024-02-28T20:02:44.673Z,4.18
2024-02-28T20:05:12.037Z,4.07
2024-02-28T20:07:39.331Z,4.22
2024-02-28T20:10:09.020Z,4.20
2024-02-28T20:12:36.551Z,4.45
2024-02-28T20:15:04.157Z,4.80
2024-02-28T20:17:54.657Z,5.05
2024-02-28T20:20:40.731Z,4.25
2024-02-28T20:23:07.991Z,1.75
2024-02-28T20:25:35.320Z,4.45
2024-02-28T20:28:04.740Z,3.60
2024-02-28T20:30:32.101Z,4.20
2024-02-28T20:32:59.880Z,3.67
2024-02-28T20:35:27.242Z,3.85
2024-02-28T20:37:54.501Z,4.13
2024-02-28T20:40:21.778Z,3.55
2024-02-28T20:42:49.634Z,3.83
2024-02-28T20:45:18.149Z,3.40
2024-02-28T20:47:45.450Z,3.80
2024-02-28T20:50:12.788Z,3.50
2024-02-28T20:52:40.078Z,3.70
2024-02-28T20:55:08.291Z,2.90
2024-02-28T20:57:35.661Z,3.15
2024-02-28T21:00:03.111Z,4.05
2024-02-28T21:02:31.838Z,3.65
2024-02-28T21:05:00.557Z,3.58
2024-02-28T21:07:37.182Z,3.40
2024-02-28T21:10:13.045Z,2.80
2024-02-28T21:12:40.413Z,3.20
2024-02-28T21:15:08.698Z,3.63
2024-02-28T21:17:37.118Z,3.47
2024-02-28T21:20:07.012Z,3.22
2024-02-28T21:22:36.919Z,3.35
2024-02-28T21:25:05.097Z,3.45
2024-02-28T21:27:32.449Z,3.20
2024-02-28T21:30:01.002Z,3.63
2024-02-28T21:32:32.406Z,3.00
2024-02-28T21:35:00.346Z,3.35
2024-02-28T21:37:27.982Z,3.45
2024-02-28T21:39:55.328Z,3.20
2024-02-28T21:42:22.629Z,3.22
2024-02-28T21:44:50.080Z,3.20
2024-02-28T21:47:18.706Z,3.30
2024-02-28T21:49:46.023Z,3.38
2024-02-28T21:52:13.667Z,2.70
2024-02-28T21:54:42.665Z,3.55
2024-02-28T21:57:11.581Z,3.60
2024-02-28T21:59:39.196Z,4.00
2024-02-28T22:02:06.918Z,3.00
2024-02-28T22:04:35.211Z,3.45
2024-02-28T22:07:04.048Z,3.53
2024-02-28T22:09:31.343Z,3.33
2024-02-28T22:11:58.671Z,3.47
2024-02-28T22:14:25.977Z,3.45
2024-02-28T22:16:53.251Z,3.58
2024-02-28T22:19:20.543Z,3.40
2024-02-28T22:21:47.982Z,3.30
2024-02-28T22:24:15.329Z,3.03
2024-02-28T22:26:42.656Z,5.20
2024-02-28T22:29:10.357Z,3.88
2024-02-28T22:31:37.848Z,5.35
2024-02-28T22:34:23.450Z,3.72
2024-02-28T22:36:51.846Z,3.67
2024-02-28T22:39:19.489Z,3.40
2024-02-28T22:41:46.781Z,3.50
2024-02-28T22:44:13.994Z,3.45
2024-02-28T22:46:41.233Z,3.33
2024-02-28T22:49:08.504Z,3.28
2024-02-28T22:51:35.933Z,3.63
2024-02-28T22:54:03.294Z,3.60
2024-02-28T22:56:30.754Z,3.55
2024-02-28T22:58:58.036Z,3.92
2024-02-28T23:01:25.312Z,3.97
2024-02-28T23:03:53.262Z,4.10
2024-02-28T23:06:20.756Z,4.22
2024-02-28T23:08:48.184Z,4.03
2024-02-28T23:11:15.508Z,3.63
2024-02-28T23:13:42.956Z,5.65
2024-02-28T23:16:10.748Z,3.78
2024-02-28T23:18:38.381Z,3.67
2024-02-28T23:21:06.211Z,4.13
2024-02-28T23:23:33.476Z,3.92
2024-02-28T23:26:03.470Z,3.67
2024-02-28T23:28:30.987Z,4.70
2024-02-28T23:30:58.318Z,4.32
2024-02-28T23:33:25.704Z,4.18
2024-02-28T23:35:53.590Z,4.10
2024-02-28T23:38:20.850Z,4.30
2024-02-28T23:40:48.163Z,4.18
2024-02-28T23:43:15.551Z,3.90
2024-02-28T23:45:42.967Z,4.05
2024-02-28T23:48:10.861Z,3.75
2024-02-28T23:50:38.204Z,3.47
2024-02-28T23:53:05.451Z,3.38
2024-02-28T23:55:32.764Z,3.80
2024-02-28T23:58:00.056Z,3.90
